Time;durP1;ratioP1;P1;durP2;ratioP2;P2;SDS_P1;SDS_P2;PMS_P1;PMS_P2;Temp;Humidity;BMP_temperature;BMP_pressure;BME280_temperature;BME280_humidity;BME280_pressure;Samples;Min_cycle;Max_cycle;Signal;HPM_P1;HPM_P2
2023/12/03 00:01:31;;;;;;;15.40;13.27;;;;;;;0.88;100.00;101699.81;6102199;28;20275;-74
2023/12/03 00:04:58;;;;;;;16.03;11.90;;;;;;;0.96;100.00;101697.75;6100401;28;20259;-73
2023/12/03 00:08:19;;;;;;;12.93;10.23;;;;;;;0.94;100.00;101702.25;6102657;28;20232;-74
2023/12/03 00:11:41;;;;;;;14.83;10.37;;;;;;;0.95;100.00;101704.84;6103374;28;20247;-75
2023/12/03 00:15:02;;;;;;;13.60;11.37;;;;;;;1.01;100.00;101696.66;6091085;28;20240;-75
2023/12/03 00:18:26;;;;;;;12.57;11.27;;;;;;;0.98;100.00;101701.22;6094039;28;20239;-74
2023/12/03 00:21:47;;;;;;;13.10;10.27;;;;;;;0.80;100.00;101703.59;6111821;28;20823;-74
2023/12/03 00:25:08;;;;;;;13.40;9.53;;;;;;;0.84;100.00;101701.69;6105591;28;20236;-76
2023/12/03 00:28:31;;;;;;;13.77;10.63;;;;;;;0.81;100.00;101702.66;6101351;28;20243;-74
2023/12/03 00:31:52;;;;;;;15.77;12.37;;;;;;;0.81;100.00;101720.41;6105290;28;20263;-75
2023/12/03 00:35:15;;;;;;;14.70;11.27;;;;;;;0.97;100.00;101715.41;6111132;28;20232;-74
2023/12/03 00:38:36;;;;;;;14.20;12.03;;;;;;;0.92;100.00;101718.22;6094229;28;21168;-75
2023/12/03 00:41:57;;;;;;;16.90;12.07;;;;;;;0.91;100.00;101720.94;6103454;28;20228;-75
2023/12/03 00:45:22;;;;;;;15.93;11.57;;;;;;;0.97;100.00;101721.56;6102001;28;20239;-74
2023/12/03 00:48:43;;;;;;;16.50;10.83;;;;;;;0.92;100.00;101725.31;6109144;28;20247;-74
2023/12/03 00:52:07;;;;;;;13.20;10.03;;;;;;;1.04;100.00;101723.09;6103679;28;20290;-75
2023/12/03 00:56:05;;;;;;;15.33;10.70;;;;;;;1.00;100.00;101717.94;6080641;28;20434;-73
2023/12/03 00:59:36;;;;;;;14.23;11.90;;;;;;;0.92;100.00;101722.66;6111538;28;20239;-74
2023/12/03 01:02:58;;;;;;;15.63;12.13;;;;;;;0.94;100.00;101723.47;6106375;28;20228;-73
2023/12/03 01:06:19;;;;;;;14.47;12.77;;;;;;;0.97;100.00;101724.22;6111850;28;20280;-73
2023/12/03 01:09:41;;;;;;;13.23;10.60;;;;;;;0.83;100.00;101726.50;6108365;28;20637;-74
2023/12/03 01:13:02;;;;;;;12.90;11.13;;;;;;;0.90;100.00;101730.66;6096274;28;20232;-74
2023/12/03 01:16:25;;;;;;;13.93;12.37;;;;;;;0.98;100.00;101738.38;6105438;28;20248;-75
2023/12/03 01:19:48;;;;;;;15.83;11.07;;;;;;;1.09;100.00;101742.38;6107208;28;20339;-73
2023/12/03 01:23:08;;;;;;;15.20;11.60;;;;;;;0.95;100.00;101744.66;6104501;28;20261;-74
2023/12/03 01:26:30;;;;;;;11.03;8.93;;;;;;;0.81;100.00;101746.94;6116257;28;20315;-75
2023/12/03 01:29:51;;;;;;;13.67;10.63;;;;;;;0.87;100.00;101752.03;6104385;28;20255;-75
2023/12/03 01:33:12;;;;;;;15.13;10.60;;;;;;;0.89;100.00;101759.91;6099674;28;20239;-73
2023/12/03 01:36:34;;;;;;;13.70;10.97;;;;;;;0.75;100.00;101769.22;6104551;28;20251;-74
2023/12/03 01:39:55;;;;;;;11.27;9.73;;;;;;;0.81;100.00;101768.16;6116542;28;20239;-74
2023/12/03 01:43:16;;;;;;;15.70;12.73;;;;;;;0.77;100.00;101774.50;6098999;28;20235;-74
2023/12/03 01:46:40;;;;;;;12.60;9.23;;;;;;;0.67;100.00;101778.34;6099357;28;20243;-73
2023/12/03 01:50:11;;;;;;;12.57;10.00;;;;;;;0.55;100.00;101784.06;6106001;28;20244;-74
2023/12/03 01:53:33;;;;;;;14.90;13.30;;;;;;;0.44;100.00;101788.88;6115969;28;20235;-74
2023/12/03 01:56:54;;;;;;;12.47;10.17;;;;;;;0.66;100.00;101789.91;6104357;28;20228;-73
2023/12/03 02:00:16;;;;;;;12.87;9.97;;;;;;;0.74;100.00;101787.84;6094132;28;20235;-73
2023/12/03 02:03:37;;;;;;;13.50;10.10;;;;;;;0.76;100.00;101783.34;6106249;28;20558;-74
2023/12/03 02:06:58;;;;;;;9.67;7.37;;;;;;;0.83;100.00;101787.53;6102925;28;20235;-74
2023/12/03 02:10:22;;;;;;;12.20;9.23;;;;;;;0.81;100.00;101781.44;6102548;28;20342;-73
2023/12/03 02:13:44;;;;;;;11.40;10.23;;;;;;;0.65;100.00;101788.16;6103667;28;20244;-72
2023/12/03 02:17:05;;;;;;;13.47;11.50;;;;;;;0.53;100.00;101792.09;6102552;28;20244;-73
2023/12/03 02:20:26;;;;;;;16.97;11.03;;;;;;;0.67;100.00;101789.84;6106762;28;20228;-73
2023/12/03 02:23:48;;;;;;;13.87;11.63;;;;;;;0.78;100.00;101793.00;6102893;28;20281;-73
2023/12/03 02:27:12;;;;;;;13.33;10.37;;;;;;;0.90;100.00;101791.69;6099477;28;20615;-74
2023/12/03 02:30:33;;;;;;;13.30;10.43;;;;;;;0.89;100.00;101792.63;6095704;28;21111;-74
2023/12/03 02:33:58;;;;;;;16.17;11.00;;;;;;;0.85;100.00;101792.78;6101427;28;20239;-74
2023/12/03 02:37:19;;;;;;;10.67;9.50;;;;;;;0.78;100.00;101792.13;6098361;28;20235;-73
2023/12/03 02:40:41;;;;;;;12.90;11.33;;;;;;;0.67;100.00;101802.22;6100255;28;20236;-74
2023/12/03 02:44:02;;;;;;;12.00;9.70;;;;;;;0.73;100.00;101802.88;6102259;28;20232;-74
2023/12/03 02:47:23;;;;;;;13.40;10.97;;;;;;;0.58;100.00;101799.91;6091310;28;20248;-73
2023/12/03 02:50:44;;;;;;;18.67;12.53;;;;;;;0.59;100.00;101793.66;6099449;28;20243;-73
2023/12/03 02:54:05;;;;;;;15.37;11.60;;;;;;;0.73;100.00;101800.25;6098026;28;20236;-74
2023/12/03 02:57:27;;;;;;;14.93;10.87;;;;;;;0.64;100.00;101805.00;6099743;28;20260;-73
2023/12/03 03:00:51;;;;;;;17.93;12.10;;;;;;;0.78;100.00;101800.09;6101422;28;20247;-73
2023/12/03 03:04:12;;;;;;;12.30;11.13;;;;;;;0.75;100.00;101810.81;6103480;28;20236;-74
2023/12/03 03:07:33;;;;;;;12.00;10.17;;;;;;;0.80;100.00;101808.88;6103065;28;20497;-74
2023/12/03 03:10:54;;;;;;;11.60;10.17;;;;;;;0.89;100.00;101811.22;6104221;28;20239;-73
2023/12/03 03:14:16;;;;;;;13.40;10.33;;;;;;;0.78;100.00;101813.34;6103112;28;20228;-74
2023/12/03 03:17:37;;;;;;;11.63;9.67;;;;;;;0.73;100.00;101812.66;6094024;28;20236;-74
2023/12/03 03:21:02;;;;;;;14.30;11.27;;;;;;;0.86;100.00;101819.28;6107183;28;20247;-73
2023/12/03 03:24:25;;;;;;;12.93;9.30;;;;;;;0.91;100.00;101827.06;6101203;28;20228;-73
2023/12/03 03:27:46;;;;;;;14.07;9.20;;;;;;;0.90;100.00;101822.72;6100957;28;20236;-73
2023/12/03 03:31:09;;;;;;;12.47;10.40;;;;;;;0.76;100.00;101826.69;6103503;28;20267;-73
2023/12/03 03:34:30;;;;;;;11.73;10.10;;;;;;;0.80;100.00;101830.09;6100702;28;20265;-73
2023/12/03 03:37:51;;;;;;;15.37;11.17;;;;;;;0.42;100.00;101838.41;6102837;28;20311;-73
2023/12/03 03:41:12;;;;;;;12.00;10.73;;;;;;;0.29;100.00;101843.28;6103153;28;20634;-73
2023/12/03 03:44:33;;;;;;;13.53;8.53;;;;;;;0.25;100.00;101852.19;6100011;28;20236;-74
2023/12/03 03:47:55;;;;;;;12.63;11.00;;;;;;;0.37;100.00;101851.84;6106547;28;20804;-73
2023/12/03 03:51:16;;;;;;;13.50;10.50;;;;;;;0.56;100.00;101847.66;6103296;28;20239;-73
2023/12/03 03:54:40;;;;;;;13.37;11.70;;;;;;;0.55;100.00;101845.06;6113557;28;20266;-72
2023/12/03 03:58:01;;;;;;;13.07;11.17;;;;;;;0.66;100.00;101848.25;6105663;28;20240;-74
2023/12/03 04:01:21;;;;;;;11.40;9.33;;;;;;;0.68;100.00;101843.78;6113188;28;20322;-74
2023/12/03 04:04:44;;;;;;;12.37;9.57;;;;;;;0.59;100.00;101836.09;6104760;28;20627;-73
2023/12/03 04:08:05;;;;;;;14.47;12.17;;;;;;;0.50;100.00;101839.06;6080606;28;20255;-73
2023/12/03 04:11:26;;;;;;;13.30;9.57;;;;;;;0.64;100.00;101837.72;6105811;28;20550;-73
2023/12/03 04:14:47;;;;;;;14.00;10.40;;;;;;;0.63;100.00;101838.59;6105325;28;21352;-74
2023/12/03 04:18:08;;;;;;;17.13;11.77;;;;;;;0.49;100.00;101843.50;6105143;28;20236;-72
2023/12/03 04:21:30;;;;;;;12.70;10.60;;;;;;;0.46;100.00;101856.84;6109271;28;20240;-73
2023/12/03 04:24:53;;;;;;;14.40;11.10;;;;;;;0.37;100.00;101861.56;6109691;28;21683;-74
2023/12/03 04:28:14;;;;;;;12.63;9.80;;;;;;;0.37;100.00;101865.09;6106718;28;20268;-75
2023/12/03 04:31:35;;;;;;;12.13;10.80;;;;;;;0.39;100.00;101873.00;6107335;28;20264;-74
2023/12/03 04:34:56;;;;;;;10.00;8.93;;;;;;;0.44;100.00;101879.03;6105568;28;20232;-73
2023/12/03 04:38:18;;;;;;;9.67;8.67;;;;;;;0.16;100.00;101870.19;6106715;28;20248;-74
2023/12/03 04:41:39;;;;;;;13.23;11.37;;;;;;;0.02;100.00;101873.25;6106162;28;20304;-73
2023/12/03 04:45:00;;;;;;;14.97;11.90;;;;;;;0.09;100.00;101872.16;6105034;28;21324;-73
2023/12/03 04:48:22;;;;;;;13.50;9.40;;;;;;;0.17;100.00;101872.78;6105281;28;20327;-74
2023/12/03 04:51:43;;;;;;;14.70;10.97;;;;;;;0.15;100.00;101879.91;6105662;28;20538;-73
2023/12/03 04:55:06;;;;;;;18.47;13.57;;;;;;;0.10;100.00;101873.03;6106738;28;20244;-73
2023/12/03 04:58:27;;;;;;;14.73;12.10;;;;;;;0.18;100.00;101879.84;6105614;28;21036;-73
2023/12/03 05:01:48;;;;;;;12.93;10.27;;;;;;;0.04;100.00;101874.09;6105015;28;20270;-73
2023/12/03 05:05:09;;;;;;;14.23;11.70;;;;;;;0.00;100.00;101880.38;6107908;28;20236;-73
2023/12/03 05:08:30;;;;;;;13.37;11.53;;;;;;;0.04;100.00;101883.81;6105433;28;20235;-73
2023/12/03 05:11:53;;;;;;;15.23;11.40;;;;;;;-0.15;100.00;101884.31;6099517;28;20236;-76
2023/12/03 05:15:14;;;;;;;11.43;10.00;;;;;;;-0.06;100.00;101884.06;6105238;28;20596;-73
2023/12/03 05:18:35;;;;;;;12.90;9.23;;;;;;;0.14;100.00;101885.25;6110609;28;20240;-73
2023/12/03 05:21:56;;;;;;;12.83;10.60;;;;;;;0.24;100.00;101887.59;6106492;28;20236;-72
2023/12/03 05:25:18;;;;;;;14.30;11.50;;;;;;;0.36;100.00;101889.88;6104716;28;20239;-73
2023/12/03 05:28:40;;;;;;;12.87;11.63;;;;;;;0.34;100.00;101901.44;6105355;28;20236;-72
2023/12/03 05:32:01;;;;;;;13.50;11.23;;;;;;;0.40;100.00;101896.81;6106477;28;20231;-73
2023/12/03 05:35:22;;;;;;;14.83;11.23;;;;;;;0.45;100.00;101901.97;6102956;28;20321;-73
2023/12/03 05:38:42;;;;;;;15.00;10.57;;;;;;;0.46;100.00;101885.16;6103100;28;20243;-73
2023/12/03 05:42:04;;;;;;;12.03;10.43;;;;;;;0.44;100.00;101894.97;6099633;28;20258;-74
2023/12/03 05:45:27;;;;;;;16.30;11.40;;;;;;;0.56;100.00;101895.41;6105317;28;20247;-73
2023/12/03 05:48:48;;;;;;;14.73;10.10;;;;;;;0.45;100.00;101897.56;6108565;28;20606;-74
2023/12/03 05:52:09;;;;;;;11.33;8.73;;;;;;;0.29;100.00;101906.03;6098906;28;20669;-74
2023/12/03 05:55:30;;;;;;;15.23;9.37;;;;;;;0.25;100.00;101904.38;6103861;28;20839;-74
2023/12/03 05:58:51;;;;;;;13.73;10.13;;;;;;;0.19;100.00;101902.75;6095469;28;20232;-73
2023/12/03 06:02:16;;;;;;;13.53;9.43;;;;;;;0.44;100.00;101905.56;6104085;28;20235;-73
2023/12/03 06:05:37;;;;;;;13.80;11.47;;;;;;;0.48;100.00;101917.81;6104368;28;20236;-73
2023/12/03 06:08:58;;;;;;;16.07;12.67;;;;;;;0.43;100.00;101914.41;6104281;28;20236;-73
2023/12/03 06:12:19;;;;;;;15.77;11.93;;;;;;;0.31;100.00;101909.50;6105348;28;20240;-73
2023/12/03 06:15:40;;;;;;;12.50;10.50;;;;;;;0.19;100.00;101909.88;6103882;28;20224;-73
2023/12/03 06:19:02;;;;;;;13.63;11.50;;;;;;;0.12;100.00;101913.59;6105071;28;20227;-73
2023/12/03 06:22:26;;;;;;;17.37;13.03;;;;;;;0.09;100.00;101918.97;6102019;28;20763;-73
2023/12/03 06:25:46;;;;;;;13.60;10.60;;;;;;;0.05;100.00;101915.56;6100722;28;20318;-73
2023/12/03 06:29:07;;;;;;;21.27;14.43;;;;;;;-0.01;100.00;101908.66;6075869;28;20247;-73
2023/12/03 06:32:28;;;;;;;13.47;10.90;;;;;;;-0.03;100.00;101915.78;6091131;28;20239;-75
2023/12/03 06:35:50;;;;;;;14.70;10.67;;;;;;;-0.06;100.00;101912.34;6100650;28;20680;-73
2023/12/03 06:39:14;;;;;;;12.30;11.07;;;;;;;-0.10;100.00;101922.16;6102380;28;20264;-73
2023/12/03 06:42:35;;;;;;;15.40;12.50;;;;;;;0.09;100.00;101927.81;6102011;28;20355;-73
2023/12/03 06:45:59;;;;;;;19.50;13.73;;;;;;;0.03;100.00;101933.28;6099561;28;20322;-74
2023/12/03 06:49:20;;;;;;;21.20;10.97;;;;;;;0.00;100.00;101942.19;6102350;28;20243;-73
2023/12/03 06:52:42;;;;;;;15.20;11.73;;;;;;;-0.55;100.00;101941.97;6101339;28;20235;-73
2023/12/03 06:56:04;;;;;;;9.97;8.70;;;;;;;-0.61;100.00;101946.53;6105246;28;20236;-73
2023/12/03 06:59:25;;;;;;;12.13;10.73;;;;;;;-0.65;100.00;101955.47;6103833;28;20236;-74
2023/12/03 07:02:46;;;;;;;11.87;9.63;;;;;;;-0.93;100.00;101957.94;6102410;28;20244;-73
2023/12/03 07:06:08;;;;;;;15.03;10.87;;;;;;;-0.81;100.00;101954.97;6103021;28;21327;-74
2023/12/03 07:09:31;;;;;;;17.43;10.00;;;;;;;-1.02;100.00;101958.13;6065704;28;1045144;-73
2023/12/03 07:12:52;;;;;;;11.10;9.53;;;;;;;-0.88;100.00;101966.63;6107500;28;20232;-73
2023/12/03 07:16:14;;;;;;;19.60;12.67;;;;;;;-0.87;100.00;101966.59;6105549;28;20236;-73
2023/12/03 07:19:35;;;;;;;14.27;10.47;;;;;;;-0.86;100.00;101967.47;6102016;28;20261;-74
2023/12/03 07:22:56;;;;;;;14.20;11.73;;;;;;;-0.82;100.00;101967.38;6104264;28;20546;-73
2023/12/03 07:26:18;;;;;;;17.63;13.50;;;;;;;-0.60;100.00;101974.75;6106148;28;20236;-73
2023/12/03 07:29:39;;;;;;;24.10;16.03;;;;;;;-0.60;100.00;101975.63;6073262;28;20227;-73
2023/12/03 07:33:00;;;;;;;19.90;15.93;;;;;;;-0.90;100.00;101976.41;6093907;28;20232;-73
2023/12/03 07:36:21;;;;;;;18.43;12.40;;;;;;;-0.63;100.00;101974.84;6089435;28;20337;-74
2023/12/03 07:39:42;;;;;;;18.30;14.03;;;;;;;-0.90;100.00;101979.88;6091565;28;20629;-74
2023/12/03 07:43:04;;;;;;;18.37;13.90;;;;;;;-0.79;100.00;101995.50;6083561;28;20244;-73
2023/12/03 07:46:25;;;;;;;23.10;15.90;;;;;;;-1.04;100.00;101991.69;6101401;28;20232;-74
2023/12/03 07:49:46;;;;;;;23.30;16.07;;;;;;;-0.89;100.00;101994.88;6102356;28;20255;-74
2023/12/03 07:53:07;;;;;;;25.87;13.83;;;;;;;-0.98;100.00;101995.06;6100121;28;20243;-74
2023/12/03 07:56:34;;;;;;;35.33;15.73;;;;;;;-0.92;100.00;101996.72;6103479;28;20331;-73
2023/12/03 07:59:57;;;;;;;27.10;12.37;;;;;;;-1.33;100.00;101999.44;6100723;28;20243;-74
2023/12/03 08:03:19;;;;;;;26.20;12.27;;;;;;;-1.47;100.00;102018.25;6100276;28;20243;-74
2023/12/03 08:06:40;;;;;;;16.77;13.30;;;;;;;-1.31;100.00;102008.19;6096896;28;20241;-74
2023/12/03 08:10:01;;;;;;;19.30;14.07;;;;;;;-1.35;100.00;101998.59;6103729;28;20332;-74
2023/12/03 08:13:21;;;;;;;19.03;10.90;;;;;;;-1.19;100.00;102002.66;6102422;28;20220;-74
2023/12/03 08:16:44;;;;;;;16.33;9.63;;;;;;;-1.19;100.00;102010.59;6100388;28;20232;-74
2023/12/03 08:20:07;;;;;;;15.67;11.10;;;;;;;-1.38;100.00;102014.53;6100581;28;20667;-73
2023/12/03 08:23:28;;;;;;;17.43;10.63;;;;;;;-1.48;100.00;102011.19;6102069;28;20235;-73
2023/12/03 08:26:50;;;;;;;16.50;10.97;;;;;;;-1.18;100.00;102014.97;6088374;28;20654;-74
2023/12/03 08:30:12;;;;;;;11.90;10.27;;;;;;;-0.98;100.00;102028.63;6101888;28;20229;-74
2023/12/03 08:33:34;;;;;;;14.13;12.10;;;;;;;-1.68;100.00;102031.91;6111390;28;20240;-74
2023/12/03 08:36:55;;;;;;;14.53;10.23;;;;;;;-1.68;100.00;102024.84;6099366;28;20239;-73
2023/12/03 08:40:16;;;;;;;13.57;9.10;;;;;;;-1.80;100.00;102030.38;6096975;28;20328;-74
2023/12/03 08:43:37;;;;;;;15.37;9.40;;;;;;;-1.62;100.00;102026.50;6096757;28;20232;-74
2023/12/03 08:46:58;;;;;;;13.57;8.13;;;;;;;-1.75;100.00;102025.00;6101012;28;20360;-73
2023/12/03 08:50:26;;;;;;;14.40;9.70;;;;;;;-1.86;100.00;102038.44;6114923;28;20256;-74
2023/12/03 08:53:47;;;;;;;15.20;10.83;;;;;;;-1.92;100.00;102043.81;6091261;28;20274;-74
2023/12/03 08:57:09;;;;;;;14.93;6.87;;;;;;;-2.13;100.00;102038.06;6081009;28;20311;-73
2023/12/03 09:00:30;;;;;;;19.97;9.03;;;;;;;-1.96;100.00;102036.84;6105874;28;20321;-75
2023/12/03 09:03:51;;;;;;;11.47;7.40;;;;;;;-2.50;100.00;102032.53;6107305;28;20239;-74
2023/12/03 09:07:14;;;;;;;13.00;9.53;;;;;;;-2.34;100.00;102026.13;6095441;28;20232;-75
2023/12/03 09:10:34;;;;;;;14.00;10.60;;;;;;;-2.14;100.00;102024.00;6108324;28;20343;-73
2023/12/03 09:13:55;;;;;;;8.40;7.37;;;;;;;-2.05;100.00;102029.13;6105773;28;20228;-74
2023/12/03 09:17:16;;;;;;;18.70;12.00;;;;;;;-1.67;100.00;102038.94;6103714;28;20236;-74
2023/12/03 09:20:37;;;;;;;18.60;11.03;;;;;;;-1.50;100.00;102047.38;6106295;28;20239;-75
2023/12/03 09:24:00;;;;;;;14.10;10.93;;;;;;;-1.85;100.00;102053.38;6104965;28;20259;-74
2023/12/03 09:27:20;;;;;;;17.93;11.10;;;;;;;-1.80;100.00;102046.25;6105951;28;20231;-74
2023/12/03 09:30:42;;;;;;;14.80;9.93;;;;;;;-1.86;100.00;102049.00;6101666;28;20318;-73
2023/12/03 09:34:02;;;;;;;18.80;13.57;;;;;;;-1.66;100.00;102051.25;6104619;28;20515;-73
2023/12/03 09:37:26;;;;;;;18.40;12.83;;;;;;;-1.71;100.00;102069.81;6096298;28;21390;-73
2023/12/03 09:40:49;;;;;;;15.90;11.50;;;;;;;-1.52;100.00;102064.19;6104813;28;20236;-73
2023/12/03 09:44:20;;;;;;;17.00;11.90;;;;;;;-1.13;100.00;102066.00;6104706;28;20236;-73
2023/12/03 09:47:48;;;;;;;17.53;11.17;;;;;;;-1.29;100.00;102069.84;6105327;28;20322;-73
2023/12/03 09:51:10;;;;;;;16.07;10.27;;;;;;;-1.34;100.00;102055.88;6102834;28;20232;-73
2023/12/03 09:54:32;;;;;;;18.27;11.53;;;;;;;-1.57;100.00;102069.56;6099775;28;20231;-73
2023/12/03 09:57:56;;;;;;;18.03;9.37;;;;;;;-1.67;100.00;102076.78;6100027;28;20236;-74
2023/12/03 10:01:17;;;;;;;16.10;11.53;;;;;;;-1.90;100.00;102084.28;6105126;28;20281;-73
2023/12/03 10:04:38;;;;;;;16.23;9.30;;;;;;;-1.94;100.00;102081.75;6100069;28;20227;-74
2023/12/03 10:07:59;;;;;;;10.73;7.67;;;;;;;-1.77;100.00;102085.81;6103458;28;20232;-74
2023/12/03 10:11:25;;;;;;;15.77;10.83;;;;;;;-1.55;100.00;102095.97;6104820;28;20236;-74
2023/12/03 10:14:47;;;;;;;16.77;10.10;;;;;;;-1.83;100.00;102095.63;6101994;28;20244;-74
2023/12/03 10:18:08;;;;;;;15.83;10.73;;;;;;;-1.66;100.00;102093.53;6104127;28;20240;-74
2023/12/03 10:21:31;;;;;;;14.30;10.63;;;;;;;-1.92;100.00;102109.00;6103280;28;20263;-73
2023/12/03 10:24:52;;;;;;;18.13;11.07;;;;;;;-1.94;100.00;102106.38;6102447;28;20236;-73
2023/12/03 10:28:13;;;;;;;17.10;11.03;;;;;;;-1.56;100.00;102103.00;6102041;28;20231;-73
2023/12/03 10:31:36;;;;;;;14.93;11.33;;;;;;;-1.39;100.00;102100.03;6101549;28;20323;-74
2023/12/03 10:34:57;;;;;;;15.03;9.77;;;;;;;-1.02;100.00;102104.53;6102844;28;20615;-73
2023/12/03 10:38:18;;;;;;;16.70;12.70;;;;;;;-0.86;100.00;102099.78;6087134;28;20248;-73
2023/12/03 10:41:40;;;;;;;16.80;13.10;;;;;;;-0.91;100.00;102105.19;6102708;28;20260;-73
2023/12/03 10:45:06;;;;;;;14.20;10.23;;;;;;;-0.85;100.00;102110.34;6102080;28;20259;-74
2023/12/03 10:48:30;;;;;;;15.57;12.50;;;;;;;-1.15;100.00;102110.13;6102372;28;20312;-73
2023/12/03 10:51:55;;;;;;;12.73;9.70;;;;;;;-1.15;100.00;102115.41;6104763;28;20236;-73
2023/12/03 10:55:16;;;;;;;16.60;13.03;;;;;;;-0.83;100.00;102111.16;6105431;28;20253;-74
2023/12/03 10:58:39;;;;;;;16.50;10.73;;;;;;;-0.91;100.00;102109.59;6103593;28;20237;-74
2023/12/03 11:02:07;;;;;;;16.60;10.33;;;;;;;-1.14;100.00;102111.84;6102929;28;20506;-74
2023/12/03 11:05:33;;;;;;;12.83;10.30;;;;;;;-0.91;100.00;102106.94;6103293;28;20239;-74
2023/12/03 11:08:56;;;;;;;17.67;10.30;;;;;;;-1.12;100.00;102112.69;6102394;28;20239;-74
2023/12/03 11:12:18;;;;;;;16.70;11.27;;;;;;;-1.02;100.00;102104.53;6102968;28;20236;-73
2023/12/03 11:15:41;;;;;;;18.13;12.37;;;;;;;-0.92;100.00;102113.16;6094624;28;20248;-74
2023/12/03 11:19:07;;;;;;;13.03;10.30;;;;;;;-0.92;100.00;102105.22;6103003;28;20701;-74
2023/12/03 11:22:39;;;;;;;15.60;10.60;;;;;;;-1.07;100.00;102116.13;6101501;28;20251;-74
2023/12/03 11:26:05;;;;;;;15.07;10.63;;;;;;;-1.03;100.00;102117.81;6102002;28;20323;-74
2023/12/03 11:29:48;;;;;;;17.40;11.73;;;;;;;-0.95;100.00;102121.16;6098970;28;20240;-73
2023/12/03 11:33:11;;;;;;;17.17;12.30;;;;;;;-0.84;100.00;102119.16;6088199;28;20244;-75
2023/12/03 11:36:36;;;;;;;13.43;10.47;;;;;;;-1.01;100.00;102124.81;6102832;28;20228;-74
2023/12/03 11:40:08;;;;;;;19.30;11.40;;;;;;;-0.87;100.00;102117.44;6088241;28;20235;-74
2023/12/03 11:43:31;;;;;;;17.30;11.00;;;;;;;-1.14;100.00;102119.78;6097215;28;20224;-73
2023/12/03 11:47:02;;;;;;;12.73;8.63;;;;;;;-1.15;100.00;102121.56;6115298;28;20236;-73
2023/12/03 11:50:23;;;;;;;15.37;12.10;;;;;;;-1.00;100.00;102125.69;6101409;28;20460;-72
2023/12/03 11:53:53;;;;;;;21.83;12.30;;;;;;;-0.68;100.00;102112.59;6106555;28;20243;-74
2023/12/03 11:57:16;;;;;;;19.43;14.03;;;;;;;1.37;100.00;102095.47;6101226;28;20239;-75
2023/12/03 12:00:39;;;;;;;12.07;10.67;;;;;;;5.85;100.00;102079.69;6101609;28;20361;-74
2023/12/03 12:04:00;;;;;;;10.77;9.43;;;;;;;5.44;100.00;102075.47;6100442;28;20308;-73
2023/12/03 12:07:21;;;;;;;10.43;8.90;;;;;;;4.52;100.00;102070.00;6098486;28;20251;-74
2023/12/03 12:10:42;;;;;;;12.30;9.07;;;;;;;5.67;100.00;102077.91;6098605;28;20244;-77
2023/12/03 12:14:04;;;;;;;12.77;8.43;;;;;;;5.22;100.00;102061.38;6101172;28;20241;-74
2023/12/03 12:17:26;;;;;;;15.77;11.70;;;;;;;5.84;100.00;102067.22;6087783;28;20228;-76
2023/12/03 12:20:48;;;;;;;14.20;9.60;;;;;;;7.58;100.00;102058.63;6108966;28;20534;-76
2023/12/03 12:24:08;;;;;;;12.23;10.13;;;;;;;6.12;100.00;102066.69;6076522;28;20259;-74
2023/12/03 12:27:29;;;;;;;13.47;9.50;;;;;;;6.47;100.00;102059.53;6105363;28;20231;-76
2023/12/03 12:30:52;;;;;;;15.27;11.43;;;;;;;6.79;100.00;102064.03;6101991;28;20236;-75
2023/12/03 12:34:13;;;;;;;15.13;10.77;;;;;;;6.46;100.00;102066.69;6093785;28;20243;-74
2023/12/03 12:37:34;;;;;;;13.87;9.93;;;;;;;5.60;100.00;102073.78;6100944;28;20271;-77
2023/12/03 12:40:56;;;;;;;12.93;10.00;;;;;;;5.68;100.00;102074.25;6107398;28;20584;-77
2023/12/03 12:44:18;;;;;;;12.63;9.23;;;;;;;5.94;100.00;102064.97;6103015;28;20235;-75
2023/12/03 12:47:40;;;;;;;12.53;9.60;;;;;;;5.18;100.00;102067.81;6106087;28;20257;-75
2023/12/03 12:51:02;;;;;;;13.20;11.90;;;;;;;5.10;100.00;102061.97;6107838;28;20282;-74
2023/12/03 12:54:22;;;;;;;14.17;11.30;;;;;;;4.78;100.00;102061.66;6103371;28;20240;-75
2023/12/03 12:57:43;;;;;;;13.87;11.43;;;;;;;3.62;100.00;102063.25;6103430;28;20239;-74
2023/12/03 13:01:04;;;;;;;14.10;10.67;;;;;;;4.49;100.00;102063.91;6105054;28;20328;-74
2023/12/03 13:04:27;;;;;;;15.60;12.57;;;;;;;3.85;100.00;102057.84;6107367;28;20243;-77
2023/12/03 13:07:48;;;;;;;13.70;10.47;;;;;;;3.60;100.00;102060.66;6101456;28;20236;-77
2023/12/03 13:11:09;;;;;;;13.57;11.17;;;;;;;4.29;100.00;102056.81;6103989;28;20236;-78
2023/12/03 13:14:32;;;;;;;13.20;11.17;;;;;;;4.33;100.00;102053.06;6104827;28;20240;-75
2023/12/03 13:17:54;;;;;;;14.33;10.63;;;;;;;4.17;100.00;102053.78;6103996;28;20240;-75
2023/12/03 13:21:16;;;;;;;12.60;9.90;;;;;;;2.70;100.00;102064.25;6104269;28;20232;-75
2023/12/03 13:24:37;;;;;;;11.80;10.57;;;;;;;2.89;100.00;102065.28;6092996;28;20236;-77
2023/12/03 13:27:58;;;;;;;15.47;11.50;;;;;;;2.85;100.00;102056.56;6096254;28;20236;-77
2023/12/03 13:31:22;;;;;;;12.53;9.73;;;;;;;2.21;100.00;102057.19;6083667;28;20239;-76
2023/12/03 13:34:43;;;;;;;15.10;11.27;;;;;;;2.00;100.00;102058.78;6105073;28;20231;-76
2023/12/03 13:38:05;;;;;;;15.60;11.57;;;;;;;2.13;100.00;102061.88;6089957;28;20236;-75
2023/12/03 13:41:30;;;;;;;18.73;13.57;;;;;;;1.76;100.00;102061.41;6097870;28;20224;-75
2023/12/03 13:44:51;;;;;;;16.60;11.87;;;;;;;1.47;100.00;102054.41;6100009;28;20235;-74
2023/12/03 13:48:12;;;;;;;14.93;11.67;;;;;;;1.45;100.00;102054.47;6100968;28;20249;-75
2023/12/03 13:51:34;;;;;;;18.13;13.03;;;;;;;1.16;100.00;102051.88;6103690;28;20240;-74
2023/12/03 13:54:58;;;;;;;15.77;11.07;;;;;;;1.22;100.00;102057.00;6102797;28;20265;-74
2023/12/03 13:58:19;;;;;;;20.63;12.63;;;;;;;1.19;100.00;102057.06;6102877;28;20587;-74
2023/12/03 14:01:40;;;;;;;13.90;11.40;;;;;;;1.55;100.00;102055.03;6100820;28;20240;-74
2023/12/03 14:05:01;;;;;;;17.43;12.13;;;;;;;1.48;100.00;102053.50;6088880;28;20847;-75
2023/12/03 14:08:22;;;;;;;12.23;10.33;;;;;;;1.45;100.00;102057.13;6093423;28;20240;-74
2023/12/03 14:11:44;;;;;;;12.57;11.17;;;;;;;1.38;100.00;102055.56;6088998;28;20236;-75
2023/12/03 14:15:07;;;;;;;18.00;11.80;;;;;;;1.40;100.00;102050.22;6090426;28;20244;-75
2023/12/03 14:18:28;;;;;;;14.80;11.67;;;;;;;1.33;100.00;102056.66;6095701;28;20228;-74
2023/12/03 14:21:49;;;;;;;18.17;12.80;;;;;;;1.20;100.00;102053.53;6094644;28;20654;-75
2023/12/03 14:25:10;;;;;;;19.80;12.10;;;;;;;0.94;100.00;102061.41;6094517;28;20219;-74
2023/12/03 14:28:36;;;;;;;18.53;13.77;;;;;;;0.66;100.00;102063.16;6095791;28;20285;-76
2023/12/03 14:31:57;;;;;;;17.33;11.87;;;;;;;0.44;100.00;102062.03;6092681;28;20240;-75
2023/12/03 14:35:18;;;;;;;14.73;11.30;;;;;;;0.40;100.00;102058.56;6092771;28;20244;-75
2023/12/03 14:38:39;;;;;;;20.23;15.43;;;;;;;0.34;100.00;102060.53;6095980;28;20231;-75
2023/12/03 14:42:00;;;;;;;21.00;14.13;;;;;;;0.10;100.00;102063.84;6092724;28;20233;-74
2023/12/03 14:45:22;;;;;;;20.17;13.23;;;;;;;0.25;100.00;102064.28;6088387;28;20236;-75
2023/12/03 14:48:43;;;;;;;15.10;12.03;;;;;;;0.16;100.00;102064.56;6086460;28;20240;-75
2023/12/03 14:52:04;;;;;;;16.50;12.60;;;;;;;0.20;100.00;102062.69;6095189;28;20614;-75
2023/12/03 14:55:26;;;;;;;19.43;11.63;;;;;;;0.18;100.00;102052.13;6101453;28;20272;-76
2023/12/03 14:58:48;;;;;;;19.07;12.73;;;;;;;0.14;100.00;102065.50;6100618;28;20232;-76
2023/12/03 15:02:10;;;;;;;17.03;12.40;;;;;;;0.16;100.00;102066.34;6098171;28;20323;-77
2023/12/03 15:05:30;;;;;;;14.70;11.40;;;;;;;0.33;100.00;102070.28;6099625;28;20240;-76
2023/12/03 15:08:52;;;;;;;15.73;12.90;;;;;;;0.20;100.00;102081.25;6099503;28;20575;-77
2023/12/03 15:12:13;;;;;;;20.13;16.97;;;;;;;0.11;100.00;102085.00;6089252;28;20243;-76
2023/12/03 15:15:33;;;;;;;20.77;13.87;;;;;;;0.17;100.00;102079.53;6097426;28;20251;-76
2023/12/03 15:18:56;;;;;;;15.90;12.87;;;;;;;0.19;100.00;102079.53;6100858;28;20310;-75